Terminal Aerodrome Forecast
Issued by NWS

Home | Current Version | Previous Version | Text Only | Print | Product List | Glossary On
Versions: 1 2 3 4 5 6 7 8 9 10 11 12 13 14
000
FTUS45 KRIW 211232 AAA
TAFCPR
TAF AMD
KCPR 211232Z 2113/2212 02011KT 3SM BR OVC004
     FM211500 02008KT P6SM BKN010
     FM211800 VRB06KT P6SM SCT030
     FM212000 23014G20KT P6SM SCT250
     FM220300 22015G25KT P6SM BKN100=

USA.gov is the U.S. government's official web portal to all federal, state and local government web resources and services.